WBKKWBKL

Guest
Details From WBKK - Kota Kinabalu Intl
To WBKL - Labuan
Flight Number -
Tags generated
Created
Modified
Stats Distance 61 nm / 114 km
Max Altitude 900 ft / 274 m
Waypoints 3
Social Downloads 0
Likes 0
Share VATSIM

Download

Looking for another format? Having issues loading an existing format? Contact us
Advertisement - Login to hide

Notes

Basic altitude profile: - Ascent Rate: 2500ft/min - Ascent Speed: 250kts - Cruise Altitude: 35000ft - Cruise Speed: 420kts - Descent Rate: 1500ft/min - Descent Speed: 250kts Options: - Use NATs: yes - Use PACOTS: yes - Use low airways: yes - Use high airways: yes

Route

WBKK VJN WBKL

ID Type Via Altitude Latitude Longitude Leg Dist Tot Dist Heading (true) Name
O WBKK APT - 0 ft / 0 m 5.93721˚ 116.05118˚ - 0 nm - Kota Kinabalu Intl
VJN VOR - 900 ft / 274 m 5.89967˚ 116.02994˚ 2 nm 2 nm 209° / 209° KOTA KINABALU VOR-DME
O WBKL APT - 0 ft / 0 m 5.30069˚ 115.25018˚ 58 nm 61 nm 232° / 232° Labuan

Altitude Profile

Advertisement - Login to hide

WBKK

Details ICAO WBKK (BKI)
Name Kota Kinabalu Intl
Region Brunei and Malaysia
Timezone Asia/Kuching (UTC+8.0)
Stats Elevation 10 ft / 3 m (AMSL)
Location 5.937208° 116.051181°
Runways 1
Magnetic Variation 0.452° W

METAR

WBKK 231330Z 13003KT 9999 FEW014 SCT140 BKN270 26/24 Q1009 NOSIG

Decode

TAF

TAF WBKK 231100Z 2312/2412 12005KT 9999 FEW015 TEMPO 2320/2400 3000 TSRA FEW014 FEW016CB SCT035

Decode

Departure Runways

ID Width Length Bearing (true) Bearing (mag) Surface Threshold Offset Overrun Length
02 150 ft / 46 m 9,836 ft / 2,998 m 22.73° 23.18° Asphalt 1,600 ft / 488 m 0 ft / 0 m
20 150 ft / 46 m 9,836 ft / 2,998 m 202.73° 203.18° Asphalt 200 ft / 61 m 0 ft / 0 m

WBKL

Details ICAO WBKL (LBU)
Name Labuan
Region Brunei and Malaysia
Timezone Asia/Kuching (UTC+8.0)
Stats Elevation 101 ft / 31 m (AMSL)
Location 5.300685° 115.250183°
Runways 1
Magnetic Variation 0.318° W

METAR

WBKL 231300Z 00000KT 9999 FEW013 BKN280 25/24 Q1009

Decode

TAF

TAF WBKL 230500Z 2306/2406 VRB03KT 9999 FEW012 FEW014CB PROB30 TEMPO 2314/2318 5000 TSRA FEW010 FEW012CB SCT030

Decode

Destination Runways

ID Width Length Bearing (true) Bearing (mag) Surface Threshold Offset Overrun Length
14 148 ft / 45 m 7,518 ft / 2,292 m 145.81° 146.13° Asphalt 0 ft / 0 m 1,005 ft / 306 m
32 148 ft / 45 m 7,518 ft / 2,292 m 325.81° 326.13° Asphalt 0 ft / 0 m 940 ft / 287 m

Approach Navaids

Runway Type Ident Frequency Range Bearing (true) Bearing (mag) Slope Elevation
14 Localiser ILB 111.10 MHz 18 nm / 33 km 145.82° 146.14° - 101 ft / 31 m (AMSL)
14 Glidescope ILB 111.10 MHz 10 nm / 19 km 145.81° 146.13° 3.00° 101 ft / 31 m (AMSL)

Popular Alternatives